createdAt,value
2017-12-12T00:00:43.963Z,1.52
2017-12-12T00:03:10.397Z,1.51
2017-12-12T00:05:36.834Z,1.48
2017-12-12T00:08:03.266Z,1.50
2017-12-12T00:10:30.431Z,1.50
2017-12-12T00:12:56.852Z,1.45
2017-12-12T00:15:23.217Z,1.36
2017-12-12T00:17:49.618Z,1.32
2017-12-12T00:20:16.053Z,1.25
2017-12-12T00:22:42.386Z,1.31
2017-12-12T00:25:08.819Z,1.34
2017-12-12T00:27:35.971Z,1.31
2017-12-12T00:30:02.374Z,1.25
2017-12-12T00:32:28.839Z,1.27
2017-12-12T00:34:55.275Z,1.19
2017-12-12T00:37:21.709Z,1.29
2017-12-12T00:39:48.144Z,1.36
2017-12-12T00:42:14.578Z,1.36
2017-12-12T00:44:41.681Z,1.29
2017-12-12T00:47:08.062Z,1.32
2017-12-12T00:49:34.394Z,1.31
2017-12-12T00:52:00.829Z,1.31
2017-12-12T00:54:27.199Z,1.29
2017-12-12T00:56:53.596Z,1.28
2017-12-12T00:59:20.030Z,1.30
2017-12-12T01:01:47.200Z,1.28
2017-12-12T01:04:13.636Z,1.32
2017-12-12T01:06:40.050Z,1.34
2017-12-12T01:09:06.361Z,1.26
2017-12-12T01:11:32.819Z,1.21
2017-12-12T01:13:59.252Z,1.20
2017-12-12T01:16:25.686Z,1.15
2017-12-12T01:18:52.813Z,1.11
2017-12-12T01:21:19.277Z,1.22
2017-12-12T01:23:45.672Z,1.32
2017-12-12T01:26:12.038Z,1.39
2017-12-12T01:28:38.345Z,1.40
2017-12-12T01:31:04.897Z,1.34
2017-12-12T01:33:31.239Z,1.30
2017-12-12T01:35:58.393Z,1.26
2017-12-12T01:38:24.762Z,1.19
2017-12-12T01:40:51.105Z,1.32
2017-12-12T01:43:17.581Z,1.30
2017-12-12T01:45:44.027Z,1.46
2017-12-12T01:48:10.496Z,1.49
2017-12-12T01:50:36.895Z,1.40
2017-12-12T01:53:03.981Z,1.33
2017-12-12T01:55:30.366Z,1.33
2017-12-12T01:57:56.814Z,1.32
2017-12-12T02:00:23.146Z,1.38
2017-12-12T02:02:49.580Z,1.41
2017-12-12T02:05:16.016Z,1.46
2017-12-12T02:07:42.351Z,1.39
2017-12-12T02:10:09.695Z,1.32
2017-12-12T02:12:36.137Z,1.27
2017-12-12T02:15:02.595Z,1.19
2017-12-12T02:17:28.969Z,1.09
2017-12-12T02:19:55.411Z,1.16
2017-12-12T02:22:21.876Z,1.18
2017-12-12T02:24:48.310Z,1.26
2017-12-12T02:27:15.437Z,1.23
2017-12-12T02:29:41.899Z,1.29
2017-12-12T02:32:08.333Z,1.38
2017-12-12T02:34:34.698Z,1.44
2017-12-12T02:37:01.098Z,1.35
2017-12-12T02:39:27.429Z,1.38
2017-12-12T02:41:53.797Z,1.43
2017-12-12T02:44:21.016Z,1.55
2017-12-12T02:46:47.453Z,1.67
2017-12-12T02:49:13.889Z,1.80
2017-12-12T02:51:40.325Z,1.90
2017-12-12T02:54:06.759Z,1.97
2017-12-12T02:56:33.191Z,1.98
2017-12-12T02:58:59.680Z,2.07
2017-12-12T03:01:26.775Z,2.16
2017-12-12T03:03:53.090Z,2.33
2017-12-12T03:06:19.541Z,2.48
2017-12-12T03:08:45.948Z,2.54
2017-12-12T03:11:12.390Z,2.70
2017-12-12T03:13:38.844Z,2.86
2017-12-12T03:16:05.358Z,2.91
2017-12-12T03:18:32.417Z,2.96
2017-12-12T03:20:58.864Z,2.99
2017-12-12T03:23:25.298Z,3.00
2017-12-12T03:25:51.631Z,2.96
2017-12-12T03:28:18.066Z,2.92
2017-12-12T03:30:44.380Z,2.79
2017-12-12T03:33:10.832Z,2.61
2017-12-12T03:35:37.985Z,2.52
2017-12-12T03:38:04.419Z,2.32
2017-12-12T03:40:30.751Z,2.18
2017-12-12T03:42:57.069Z,2.01
2017-12-12T03:45:23.518Z,1.86
2017-12-12T03:47:49.889Z,1.71
2017-12-12T03:50:16.283Z,1.51
2017-12-12T03:52:43.556Z,1.32
2017-12-12T03:55:09.972Z,1.21
2017-12-12T03:57:36.406Z,1.16
2017-12-12T04:00:02.841Z,1.14
2017-12-12T04:02:29.377Z,1.12
2017-12-12T04:04:55.748Z,1.14
2017-12-12T04:07:22.164Z,1.10
2017-12-12T04:09:49.398Z,1.16
2017-12-12T04:12:15.832Z,1.22
2017-12-12T04:14:42.267Z,1.22
2017-12-12T04:17:08.701Z,1.18
2017-12-12T04:19:35.114Z,1.15
2017-12-12T04:22:01.571Z,1.13
2017-12-12T04:24:27.949Z,1.19
2017-12-12T04:26:55.190Z,1.17
2017-12-12T04:29:21.592Z,1.23
2017-12-12T04:31:47.924Z,1.32
2017-12-12T04:34:14.362Z,1.37
2017-12-12T04:36:40.794Z,1.42
2017-12-12T04:39:07.226Z,1.47
2017-12-12T04:41:33.662Z,1.52
2017-12-12T04:44:00.729Z,1.55
2017-12-12T04:46:27.145Z,1.59
2017-12-12T04:48:53.579Z,1.66
2017-12-12T04:51:20.014Z,1.73
2017-12-12T04:53:46.449Z,1.76
2017-12-12T04:56:12.883Z,1.79
2017-12-12T04:58:39.318Z,1.82
2017-12-12T05:01:06.500Z,1.82
2017-12-12T05:03:32.903Z,1.78
2017-12-12T05:05:59.235Z,1.67
2017-12-12T05:08:25.671Z,1.56
2017-12-12T05:10:52.147Z,1.52
2017-12-12T05:13:18.542Z,1.49
2017-12-12T05:15:44.974Z,1.49
2017-12-12T05:18:12.126Z,1.46
2017-12-12T05:20:38.538Z,1.48
2017-12-12T05:23:04.993Z,1.45
2017-12-12T05:25:31.429Z,1.41
2017-12-12T05:27:57.837Z,1.47
2017-12-12T05:30:24.231Z,1.56
2017-12-12T05:32:50.632Z,1.57
2017-12-12T05:35:17.865Z,1.53
2017-12-12T05:37:44.339Z,1.55
2017-12-12T05:40:10.753Z,1.63
2017-12-12T05:42:37.187Z,1.67
2017-12-12T05:45:03.641Z,1.74
2017-12-12T05:47:29.954Z,1.82
2017-12-12T05:49:56.388Z,1.86
2017-12-12T05:52:23.577Z,1.90
2017-12-12T05:54:49.909Z,1.93
2017-12-12T05:57:16.246Z,2.02
2017-12-12T05:59:42.638Z,2.10
2017-12-12T06:02:09.072Z,2.08
2017-12-12T06:04:35.612Z,2.14
2017-12-12T06:07:02.045Z,2.22
2017-12-12T06:09:28.478Z,2.31
2017-12-12T06:11:55.431Z,2.43
2017-12-12T06:14:21.966Z,2.53
2017-12-12T06:16:48.398Z,2.60
2017-12-12T06:19:14.819Z,2.65
2017-12-12T06:21:41.594Z,2.72
2017-12-12T06:24:07.936Z,2.72
2017-12-12T06:26:34.340Z,2.75
2017-12-12T06:29:00.776Z,2.82
2017-12-12T06:31:27.622Z,2.95
2017-12-12T06:33:54.054Z,3.05
2017-12-12T06:36:20.591Z,3.22
2017-12-12T06:38:47.025Z,3.36
2017-12-12T06:41:13.358Z,3.45
2017-12-12T06:43:39.689Z,3.57
2017-12-12T06:46:06.126Z,3.63
2017-12-12T06:48:32.493Z,3.70
2017-12-12T06:50:58.890Z,3.77
2017-12-12T06:53:25.306Z,3.89
2017-12-12T06:55:52.066Z,4.03
2017-12-12T06:58:19.013Z,4.15
2017-12-12T07:00:45.447Z,4.26
2017-12-12T07:03:11.950Z,4.35
2017-12-12T07:05:38.394Z,4.48
2017-12-12T07:08:04.785Z,4.62
2017-12-12T07:15:35.625Z,4.91
2017-12-12T07:18:02.063Z,4.99
2017-12-12T07:20:29.009Z,5.07
2017-12-12T07:22:55.546Z,5.24
2017-12-12T07:25:22.116Z,5.34
2017-12-12T07:27:48.516Z,5.49
2017-12-12T07:30:15.360Z,5.62
2017-12-12T07:32:41.838Z,5.69
2017-12-12T07:35:08.403Z,5.79
2017-12-12T07:37:34.804Z,5.92
2017-12-12T07:40:01.343Z,6.05
2017-12-12T07:42:27.772Z,6.24
2017-12-12T07:44:54.109Z,6.45
2017-12-12T07:47:20.545Z,6.65
2017-12-12T07:49:47.144Z,6.82
2017-12-12T07:52:14.090Z,7.00
2017-12-12T07:54:40.627Z,7.16
2017-12-12T07:57:07.224Z,7.27
2017-12-12T07:59:33.700Z,7.46
2017-12-12T08:02:00.238Z,7.71
2017-12-12T08:04:26.605Z,7.92
2017-12-12T08:06:53.004Z,8.07
2017-12-12T08:09:19.439Z,8.31
2017-12-12T08:11:46.080Z,8.57
2017-12-12T08:14:13.437Z,8.72
2017-12-12T08:16:39.801Z,8.91
2017-12-12T08:19:06.279Z,9.09
2017-12-12T08:21:32.732Z,9.25
2017-12-12T08:23:59.567Z,9.30
2017-12-12T08:26:26.121Z,9.55
2017-12-12T08:28:52.636Z,9.74
2017-12-12T08:31:19.398Z,9.92
2017-12-12T08:41:20.394Z,10.46
2017-12-12T08:43:46.828Z,10.55
2017-12-12T08:46:13.262Z,10.59
2017-12-12T08:48:40.003Z,10.75
2017-12-12T08:51:06.882Z,10.84
2017-12-12T08:53:33.363Z,10.93
2017-12-12T08:56:00.025Z,11.06
2017-12-12T08:58:26.389Z,11.22
2017-12-12T09:00:52.791Z,11.33
2017-12-12T09:03:19.650Z,11.33
2017-12-12T09:05:45.990Z,11.43
2017-12-12T09:08:12.402Z,11.63
2017-12-12T09:10:39.763Z,11.73
2017-12-12T09:13:06.947Z,11.81
2017-12-12T09:15:33.426Z,11.88
2017-12-12T09:17:59.817Z,11.72
2017-12-12T09:20:26.726Z,11.94
2017-12-12T09:22:53.264Z,11.99
2017-12-12T09:25:19.701Z,12.14
2017-12-12T09:27:46.462Z,12.21
2017-12-12T09:30:12.872Z,12.32
2017-12-12T09:32:39.418Z,12.34
2017-12-12T09:35:05.981Z,12.46
2017-12-12T09:37:32.381Z,12.56
2017-12-12T09:39:59.021Z,12.67
2017-12-12T09:42:26.281Z,12.76
2017-12-12T09:44:52.811Z,12.88
2017-12-12T09:49:51.341Z,13.09
2017-12-12T09:52:18.293Z,13.14
2017-12-12T09:54:44.796Z,13.25
2017-12-12T09:57:11.640Z,13.32
2017-12-12T09:59:38.076Z,13.47
2017-12-12T10:02:04.510Z,13.58
2017-12-12T10:04:30.944Z,13.65
2017-12-12T10:06:57.379Z,13.76
2017-12-12T10:09:24.222Z,13.87
2017-12-12T10:11:50.699Z,13.95
2017-12-12T10:14:17.195Z,14.05
2017-12-12T10:16:43.561Z,14.06
2017-12-12T10:19:10.063Z,14.20
2017-12-12T10:21:37.216Z,14.22
2017-12-12T10:24:03.649Z,14.39
2017-12-12T10:26:30.082Z,14.37
2017-12-12T10:28:56.427Z,14.42
2017-12-12T10:31:23.054Z,14.49
2017-12-12T10:33:49.492Z,14.49
2017-12-12T10:36:16.231Z,14.49
2017-12-12T10:38:42.666Z,14.61
2017-12-12T10:41:09.784Z,14.68
2017-12-12T10:43:36.661Z,14.73
2017-12-12T10:46:03.199Z,14.76
2017-12-12T10:48:29.647Z,14.81
2017-12-12T10:50:56.070Z,14.80
2017-12-12T10:53:22.605Z,14.79
2017-12-12T10:55:49.181Z,14.84
2017-12-12T10:58:15.578Z,14.97
2017-12-12T11:00:41.945Z,15.08
2017-12-12T11:03:08.445Z,15.21
2017-12-12T11:05:34.918Z,15.33
2017-12-12T11:08:01.304Z,15.51
2017-12-12T11:10:27.774Z,15.78
2017-12-12T11:12:54.217Z,16.10
2017-12-12T11:15:20.618Z,16.38
2017-12-12T11:17:47.155Z,16.67
2017-12-12T11:20:13.591Z,16.97
2017-12-12T11:22:40.126Z,17.25
2017-12-12T11:25:06.459Z,17.43
2017-12-12T11:27:32.997Z,17.80
2017-12-12T11:29:59.429Z,18.13
2017-12-12T11:32:25.826Z,18.43
2017-12-12T11:34:52.196Z,18.76
2017-12-12T11:37:18.577Z,19.07
2017-12-12T11:39:44.964Z,19.43
2017-12-12T11:42:11.461Z,19.70
2017-12-12T11:44:37.917Z,20.06
2017-12-12T11:47:04.268Z,20.35
2017-12-12T11:49:30.702Z,20.61
2017-12-12T11:51:57.268Z,20.71
2017-12-12T11:54:23.832Z,21.03
2017-12-12T11:56:50.214Z,21.29
2017-12-12T11:59:16.648Z,21.55
2017-12-12T12:01:43.184Z,21.72
2017-12-12T12:04:09.551Z,21.89
2017-12-12T12:06:35.957Z,21.94
2017-12-12T12:09:02.998Z,21.89
2017-12-12T12:11:29.365Z,21.97
2017-12-12T12:13:55.766Z,22.32
2017-12-12T12:16:22.710Z,22.80
2017-12-12T12:18:49.077Z,23.15
2017-12-12T12:21:15.427Z,23.52
2017-12-12T12:23:41.743Z,23.72
2017-12-12T12:26:08.142Z,23.92
2017-12-12T12:28:34.576Z,24.21
2017-12-12T12:31:01.011Z,24.51
2017-12-12T12:33:27.549Z,24.73
2017-12-12T12:35:54.290Z,24.95
2017-12-12T12:38:20.724Z,25.09
2017-12-12T12:40:47.811Z,25.22
2017-12-12T12:43:14.797Z,25.39
2017-12-12T12:45:41.258Z,25.58
2017-12-12T12:48:07.704Z,25.88
2017-12-12T12:50:35.155Z,26.03
2017-12-12T12:53:01.702Z,26.15
2017-12-12T12:55:28.340Z,26.45
2017-12-12T12:57:54.862Z,26.55
2017-12-12T13:00:21.605Z,26.68
2017-12-12T13:02:48.143Z,26.93
2017-12-12T13:05:14.480Z,27.04
2017-12-12T13:07:41.215Z,27.14
2017-12-12T13:10:07.651Z,27.17
2017-12-12T13:12:34.189Z,27.19
2017-12-12T13:15:00.622Z,27.26
2017-12-12T13:17:27.569Z,27.39
2017-12-12T13:19:54.003Z,27.53
2017-12-12T13:22:20.486Z,27.59
2017-12-12T13:24:46.957Z,27.72
2017-12-12T13:27:13.410Z,27.75
2017-12-12T13:29:39.781Z,27.74
2017-12-12T13:32:06.989Z,27.74
2017-12-12T13:34:33.501Z,27.74
2017-12-12T13:36:59.970Z,27.76
2017-12-12T13:39:27.119Z,27.72
2017-12-12T13:41:53.758Z,27.64
2017-12-12T13:44:20.173Z,27.63
2017-12-12T13:46:46.617Z,27.52
2017-12-12T13:49:13.267Z,27.39
2017-12-12T13:51:39.737Z,27.35
2017-12-12T13:54:06.229Z,27.33
2017-12-12T13:56:33.082Z,27.13
2017-12-12T13:58:59.621Z,26.67
2017-12-12T14:01:26.055Z,25.67
2017-12-12T14:03:52.928Z,24.43
2017-12-12T14:06:19.434Z,23.32
2017-12-12T14:08:45.972Z,22.36
2017-12-12T14:11:12.695Z,21.99
2017-12-12T14:13:39.252Z,21.89
2017-12-12T14:16:05.685Z,21.97
2017-12-12T14:18:33.456Z,21.83
2017-12-12T14:20:59.967Z,21.50
2017-12-12T14:23:26.425Z,21.04
2017-12-12T14:25:53.068Z,20.40
2017-12-12T14:28:20.010Z,19.73
2017-12-12T14:30:46.443Z,19.07
2017-12-12T14:33:12.980Z,18.42
2017-12-12T14:35:39.632Z,17.94
2017-12-12T14:38:06.056Z,17.45
2017-12-12T14:40:32.493Z,17.04
2017-12-12T14:42:59.368Z,16.63
2017-12-12T14:45:25.876Z,16.34
2017-12-12T14:47:52.407Z,16.08
2017-12-12T14:50:19.150Z,15.72
2017-12-12T14:52:45.687Z,15.41
2017-12-12T14:55:12.223Z,15.16
2017-12-12T14:57:38.863Z,14.94
2017-12-12T15:00:05.296Z,14.70
2017-12-12T15:02:31.773Z,14.53
2017-12-12T15:04:58.301Z,14.41
2017-12-12T15:07:24.678Z,14.27
2017-12-12T15:09:51.136Z,14.08
2017-12-12T15:12:17.712Z,13.97
2017-12-12T15:14:44.108Z,13.86
2017-12-12T15:17:10.421Z,13.73
2017-12-12T15:19:36.875Z,13.59
2017-12-12T15:22:03.412Z,13.48
2017-12-12T15:24:29.810Z,13.34
2017-12-12T15:26:56.690Z,13.23
2017-12-12T15:29:23.535Z,13.19
2017-12-12T15:31:50.072Z,13.12
2017-12-12T15:34:17.121Z,13.10
2017-12-12T15:36:43.556Z,12.98
2017-12-12T15:39:09.926Z,12.95
2017-12-12T15:41:36.321Z,13.10
2017-12-12T15:44:03.139Z,13.07
2017-12-12T15:46:29.581Z,12.94
2017-12-12T15:48:56.024Z,12.77
2017-12-12T15:51:22.866Z,12.65
2017-12-12T15:53:49.314Z,12.65
2017-12-12T15:56:15.684Z,12.61
2017-12-12T15:58:42.083Z,12.55
2017-12-12T16:01:08.521Z,12.53
2017-12-12T16:03:34.950Z,12.51
2017-12-12T16:06:01.385Z,12.46
2017-12-12T16:08:27.822Z,12.39
2017-12-12T16:10:54.253Z,12.31
2017-12-12T16:13:20.790Z,12.26
2017-12-12T16:15:47.225Z,12.20
2017-12-12T16:18:13.664Z,12.11
2017-12-12T16:20:40.101Z,12.06
2017-12-12T16:23:06.634Z,11.99
2017-12-12T16:25:33.169Z,11.97
2017-12-12T16:27:59.604Z,11.94
2017-12-12T16:30:26.037Z,11.88
2017-12-12T16:32:52.882Z,11.81
2017-12-12T16:35:19.317Z,11.71
2017-12-12T16:37:46.160Z,11.61
2017-12-12T16:40:12.595Z,11.53
2017-12-12T16:42:39.133Z,11.53
2017-12-12T16:45:05.670Z,11.45
2017-12-12T16:47:32.103Z,11.36
2017-12-12T16:49:58.639Z,11.34
2017-12-12T16:52:25.279Z,11.29
2017-12-12T16:54:51.714Z,11.26
2017-12-12T16:57:18.148Z,11.21
2017-12-12T16:59:44.583Z,11.17
2017-12-12T17:02:11.120Z,11.12
2017-12-12T17:04:37.692Z,11.01
2017-12-12T17:07:04.297Z,11.02
2017-12-12T17:09:30.731Z,11.04
2017-12-12T17:11:57.268Z,11.00
2017-12-12T17:14:23.706Z,10.99
2017-12-12T17:16:50.140Z,10.93
2017-12-12T17:19:17.166Z,10.84
2017-12-12T17:21:43.723Z,10.78
2017-12-12T17:24:10.158Z,10.80
2017-12-12T17:26:36.600Z,10.83
2017-12-12T17:29:03.231Z,10.77
2017-12-12T17:31:29.650Z,10.78
2017-12-12T17:33:56.105Z,10.76
2017-12-12T17:36:22.435Z,10.82
2017-12-12T17:38:48.869Z,10.79
2017-12-12T17:41:16.330Z,10.69
2017-12-12T17:43:42.865Z,10.64
2017-12-12T17:46:09.297Z,10.62
2017-12-12T18:08:48.462Z,9.77
2017-12-12T18:11:14.897Z,9.67
2017-12-12T18:13:41.260Z,9.58
2017-12-12T18:16:07.596Z,9.51
2017-12-12T18:18:33.928Z,9.39
2017-12-12T18:21:00.332Z,9.33
2017-12-12T18:23:26.764Z,9.27
2017-12-12T18:25:53.199Z,9.26
2017-12-12T18:28:19.529Z,9.24
2017-12-12T18:30:45.890Z,9.23
2017-12-12T18:33:12.297Z,9.16
2017-12-12T18:35:38.731Z,9.11
2017-12-12T18:38:05.164Z,9.05
2017-12-12T18:40:31.600Z,8.97
2017-12-12T18:42:57.927Z,8.90
2017-12-12T18:45:24.325Z,8.85
2017-12-12T18:47:50.800Z,8.69
2017-12-12T18:50:17.235Z,8.80
2017-12-12T18:52:43.669Z,8.78
2017-12-12T18:55:10.088Z,8.71
2017-12-12T18:57:36.539Z,8.58
2017-12-12T19:00:02.973Z,8.40
2017-12-12T19:02:29.408Z,8.24
2017-12-12T19:04:55.843Z,8.22
2017-12-12T19:07:22.222Z,8.20
2017-12-12T19:09:48.609Z,8.13
2017-12-12T19:12:14.942Z,8.06
2017-12-12T19:14:41.376Z,7.96
2017-12-12T19:17:07.742Z,7.80
2017-12-12T19:19:34.211Z,7.76
2017-12-12T19:22:00.679Z,7.71
2017-12-12T19:24:27.114Z,7.70
2017-12-12T19:26:53.446Z,7.72
2017-12-12T19:29:19.883Z,7.78
2017-12-12T19:31:46.317Z,7.77
2017-12-12T19:34:12.751Z,7.74
2017-12-12T19:36:39.187Z,7.71
2017-12-12T19:39:05.619Z,7.62
2017-12-12T19:41:32.875Z,7.55
2017-12-12T19:43:59.308Z,7.51
2017-12-12T19:46:25.742Z,7.47
2017-12-12T19:48:52.177Z,7.49
2017-12-12T19:51:18.612Z,7.51
2017-12-12T19:53:45.046Z,7.52
2017-12-12T19:56:11.481Z,7.55
2017-12-12T19:58:38.649Z,7.58
2017-12-12T20:01:05.067Z,7.59
2017-12-12T20:03:31.520Z,7.59
2017-12-12T20:05:57.936Z,7.58
2017-12-12T20:08:24.371Z,7.54
2017-12-12T20:10:50.806Z,7.51
2017-12-12T20:13:17.137Z,7.44
2017-12-12T20:15:44.391Z,7.43
2017-12-12T20:18:10.825Z,7.48
2017-12-12T20:20:37.193Z,7.44
2017-12-12T20:23:03.593Z,7.37
2017-12-12T20:25:29.900Z,7.30
2017-12-12T20:27:56.341Z,7.23
2017-12-12T20:30:22.847Z,7.21
2017-12-12T20:32:49.946Z,7.22
2017-12-12T20:35:16.343Z,7.20
2017-12-12T20:37:42.787Z,7.17
2017-12-12T20:40:09.147Z,7.15
2017-12-12T20:42:35.582Z,7.14
2017-12-12T20:45:01.913Z,7.09
2017-12-12T20:47:28.348Z,7.04
2017-12-12T20:49:55.501Z,7.04
2017-12-12T20:52:21.813Z,7.04
2017-12-12T20:54:48.256Z,7.00
2017-12-12T20:57:14.598Z,6.88
2017-12-12T20:59:41.033Z,6.86
2017-12-12T21:02:07.468Z,6.87
2017-12-12T21:04:33.903Z,6.92
2017-12-12T21:07:01.053Z,6.93
2017-12-12T21:09:27.590Z,6.94
2017-12-12T21:11:53.923Z,6.97
2017-12-12T21:14:20.258Z,6.95
2017-12-12T21:16:46.692Z,6.60
2017-12-12T21:19:13.123Z,6.91
2017-12-12T21:21:39.558Z,6.91
2017-12-12T21:24:06.812Z,6.90
2017-12-12T21:26:33.250Z,6.82
2017-12-12T21:28:59.682Z,6.71
2017-12-12T21:31:26.115Z,6.64
2017-12-12T21:33:52.550Z,6.72
2017-12-12T21:36:18.985Z,6.84
2017-12-12T21:38:45.420Z,6.89
2017-12-12T21:41:12.571Z,6.84
2017-12-12T21:43:38.942Z,6.79
2017-12-12T21:46:05.339Z,6.76
2017-12-12T21:48:31.773Z,6.68
2017-12-12T21:50:58.206Z,6.59
2017-12-12T21:53:24.572Z,6.53
2017-12-12T21:55:50.904Z,6.56
2017-12-12T21:58:18.124Z,6.56
2017-12-12T22:00:44.541Z,6.57
2017-12-12T22:03:10.925Z,6.55
2017-12-12T22:05:37.325Z,6.47
2017-12-12T22:08:03.760Z,6.33
2017-12-12T22:10:30.199Z,6.44
2017-12-12T22:12:56.526Z,6.41
2017-12-12T22:15:23.609Z,6.39
2017-12-12T22:17:49.945Z,6.38
2017-12-12T22:20:16.342Z,6.41
2017-12-12T22:22:42.777Z,6.43
2017-12-12T22:25:09.213Z,6.44
2017-12-12T22:27:35.647Z,6.45
2017-12-12T22:30:02.008Z,6.42
2017-12-12T22:32:29.233Z,6.40
2017-12-12T22:34:55.667Z,6.38
2017-12-12T22:37:22.104Z,6.39
2017-12-12T22:39:48.639Z,6.36
2017-12-12T22:42:15.073Z,6.10
2017-12-12T22:44:41.507Z,6.27
2017-12-12T22:47:07.942Z,6.27
2017-12-12T22:49:35.197Z,6.30
2017-12-12T22:52:01.632Z,6.30
2017-12-12T22:54:28.065Z,6.28
2017-12-12T22:56:54.500Z,6.26
2017-12-12T22:59:20.935Z,6.28
2017-12-12T23:01:47.369Z,6.10
2017-12-12T23:04:13.733Z,6.19
2017-12-12T23:06:40.957Z,6.13
2017-12-12T23:09:07.389Z,6.15
2017-12-12T23:11:33.824Z,6.17
2017-12-12T23:14:00.258Z,6.13
2017-12-12T23:16:26.693Z,6.08
2017-12-12T23:18:53.128Z,6.05
2017-12-12T23:21:19.560Z,6.07
2017-12-12T23:23:46.797Z,6.05
2017-12-12T23:26:13.253Z,5.99
2017-12-12T23:28:39.687Z,5.94
2017-12-12T23:31:06.099Z,5.93
2017-12-12T23:33:32.554Z,5.89
2017-12-12T23:35:58.990Z,5.82
2017-12-12T23:38:25.402Z,5.81
2017-12-12T23:40:52.577Z,5.80
2017-12-12T23:43:18.910Z,5.79
2017-12-12T23:45:45.343Z,5.77
2017-12-12T23:48:11.778Z,5.75
2017-12-12T23:50:38.212Z,5.73
2017-12-12T23:53:04.646Z,5.73
2017-12-12T23:55:31.014Z,5.68
2017-12-12T23:57:58.333Z,5.67
